sensor_id;sensor_type;location;lat;lon;timestamp;pressure;altitude;pressure_sealevel;temperature;humidity
57894;BME280;43710;47.460;19.034;2024-01-30T04:57:14;102885.94;;;0.94;79.83
57894;BME280;43710;47.460;19.034;2024-01-30T05:00:17;102885.94;;;0.94;79.83
57894;BME280;43710;47.460;19.034;2024-01-30T05:03:19;102894.75;;;0.41;80.37
57894;BME280;43710;47.460;19.034;2024-01-30T05:06:26;102903.38;;;0.43;85.18
57894;BME280;43710;47.460;19.034;2024-01-30T05:09:28;102913.53;;;0.74;78.52
57894;BME280;43710;47.460;19.034;2024-01-30T05:12:31;102910.19;;;0.72;77.94
57894;BME280;43710;47.460;19.034;2024-01-30T05:15:33;102915.25;;;0.83;76.73
57894;BME280;43710;47.460;19.034;2024-01-30T05:18:35;102916.47;;;0.71;99.54
57894;BME280;43710;47.460;19.034;2024-01-30T05:21:38;102916.50;;;0.53;100.00
57894;BME280;43710;47.460;19.034;2024-01-30T05:24:41;102924.09;;;0.38;87.87
57894;BME280;43710;47.460;19.034;2024-01-30T05:27:44;102934.81;;;0.55;86.28
57894;BME280;43710;47.460;19.034;2024-01-30T05:30:47;102936.09;;;0.51;79.13
57894;BME280;43710;47.460;19.034;2024-01-30T05:33:49;102929.75;;;0.61;79.38
57894;BME280;43710;47.460;19.034;2024-01-30T05:36:52;102937.22;;;0.66;77.78
57894;BME280;43710;47.460;19.034;2024-01-30T05:39:54;102939.56;;;0.33;86.67
57894;BME280;43710;47.460;19.034;2024-01-30T05:42:57;102933.12;;;0.36;82.49
57894;BME280;43710;47.460;19.034;2024-01-30T05:46:03;102941.22;;;0.34;82.99
57894;BME280;43710;47.460;19.034;2024-01-30T05:49:05;102943.44;;;0.29;92.35
57894;BME280;43710;47.460;19.034;2024-01-30T05:52:08;102944.50;;;0.18;89.44
57894;BME280;43710;47.460;19.034;2024-01-30T05:55:11;102933.66;;;0.21;100.00
57894;BME280;43710;47.460;19.034;2024-01-30T05:58:14;102938.41;;;0.18;99.31
57894;BME280;43710;47.460;19.034;2024-01-30T06:01:19;102936.41;;;0.02;100.00
57894;BME280;43710;47.460;19.034;2024-01-30T06:04:23;102932.66;;;0.22;86.30
57894;BME280;43710;47.460;19.034;2024-01-30T06:07:25;102939.81;;;0.12;97.31
57894;BME280;43710;47.460;19.034;2024-01-30T06:10:28;102943.69;;;0.18;100.00
57894;BME280;43710;47.460;19.034;2024-01-30T06:13:31;102941.84;;;0.01;90.97
57894;BME280;43710;47.460;19.034;2024-01-30T06:16:34;102942.72;;;0.37;94.15
57894;BME280;43710;47.460;19.034;2024-01-30T06:19:36;102943.97;;;0.33;81.89
57894;BME280;43710;47.460;19.034;2024-01-30T06:22:39;102933.81;;;0.38;79.38
57894;BME280;43710;47.460;19.034;2024-01-30T06:25:41;102943.75;;;0.26;84.65
57894;BME280;43710;47.460;19.034;2024-01-30T06:28:44;102946.13;;;0.65;100.00
57894;BME280;43710;47.460;19.034;2024-01-30T06:31:46;102947.38;;;0.43;97.82
57894;BME280;43710;47.460;19.034;2024-01-30T06:34:49;102948.19;;;0.26;100.00
57894;BME280;43710;47.460;19.034;2024-01-30T06:37:51;102949.22;;;0.60;100.00
57894;BME280;43710;47.460;19.034;2024-01-30T06:40:53;102957.34;;;0.31;86.18
57894;BME280;43710;47.460;19.034;2024-01-30T06:43:56;102965.31;;;0.21;88.53
57894;BME280;43710;47.460;19.034;2024-01-30T06:46:58;102954.69;;;0.31;93.89
57894;BME280;43710;47.460;19.034;2024-01-30T06:50:01;102952.28;;;0.38;95.23
57894;BME280;43710;47.460;19.034;2024-01-30T06:53:04;102952.53;;;0.44;82.28
57894;BME280;43710;47.460;19.034;2024-01-30T06:56:07;102950.19;;;0.41;83.29
57894;BME280;43710;47.460;19.034;2024-01-30T06:59:10;102956.28;;;0.24;87.31
57894;BME280;43710;47.460;19.034;2024-01-30T07:02:12;102954.63;;;0.59;100.00
57894;BME280;43710;47.460;19.034;2024-01-30T07:05:15;102953.28;;;0.37;90.45
57894;BME280;43710;47.460;19.034;2024-01-30T07:08:17;102956.84;;;0.63;94.49
57894;BME280;43710;47.460;19.034;2024-01-30T07:11:21;102957.97;;;0.61;89.26
57894;BME280;43710;47.460;19.034;2024-01-30T07:14:26;102960.53;;;0.70;85.47
57894;BME280;43710;47.460;19.034;2024-01-30T07:17:29;102959.59;;;0.98;100.00
57894;BME280;43710;47.460;19.034;2024-01-30T07:20:31;102954.69;;;1.03;93.55
57894;BME280;43710;47.460;19.034;2024-01-30T07:23:34;102954.47;;;1.22;95.07
57894;BME280;43710;47.460;19.034;2024-01-30T07:26:37;102965.00;;;1.14;100.00
57894;BME280;43710;47.460;19.034;2024-01-30T07:29:39;102962.09;;;1.25;100.00
57894;BME280;43710;47.460;19.034;2024-01-30T07:32:41;102954.69;;;1.29;83.02
57894;BME280;43710;47.460;19.034;2024-01-30T07:35:45;102951.69;;;1.24;96.12
57894;BME280;43710;47.460;19.034;2024-01-30T07:38:48;102952.22;;;1.27;84.09
57894;BME280;43710;47.460;19.034;2024-01-30T07:41:50;102946.13;;;1.61;100.00
57894;BME280;43710;47.460;19.034;2024-01-30T07:44:52;102944.84;;;1.39;90.73
57894;BME280;43710;47.460;19.034;2024-01-30T07:47:55;102947.53;;;1.47;89.34
57894;BME280;43710;47.460;19.034;2024-01-30T07:50:57;102952.94;;;1.72;95.53
57894;BME280;43710;47.460;19.034;2024-01-30T07:54:00;102945.31;;;1.69;83.25
57894;BME280;43710;47.460;19.034;2024-01-30T07:57:02;102940.62;;;1.88;100.00
57894;BME280;43710;47.460;19.034;2024-01-30T08:00:05;102940.03;;;2.03;100.00
57894;BME280;43710;47.460;19.034;2024-01-30T08:03:09;102940.62;;;1.88;100.00
57894;BME280;43710;47.460;19.034;2024-01-30T08:06:11;102944.66;;;2.01;99.33
57894;BME280;43710;47.460;19.034;2024-01-30T08:09:14;102947.84;;;2.12;87.50
57894;BME280;43710;47.460;19.034;2024-01-30T08:12:17;102947.03;;;2.28;88.65
57894;BME280;43710;47.460;19.034;2024-01-30T08:15:19;102947.38;;;2.42;87.96
57894;BME280;43710;47.460;19.034;2024-01-30T08:18:21;102956.41;;;2.81;100.00
57894;BME280;43710;47.460;19.034;2024-01-30T08:21:24;102951.75;;;2.75;92.92
57894;BME280;43710;47.460;19.034;2024-01-30T08:24:26;102946.78;;;2.97;87.42
57894;BME280;43710;47.460;19.034;2024-01-30T08:27:29;102951.53;;;3.18;100.00
57894;BME280;43710;47.460;19.034;2024-01-30T08:30:31;102951.63;;;3.65;100.00
57894;BME280;43710;47.460;19.034;2024-01-30T08:33:34;102952.31;;;3.98;100.00
57894;BME280;43710;47.460;19.034;2024-01-30T08:36:36;102959.09;;;4.32;100.00
57894;BME280;43710;47.460;19.034;2024-01-30T08:39:39;102957.53;;;4.15;100.00
57894;BME280;43710;47.460;19.034;2024-01-30T08:42:42;102964.28;;;4.26;94.96
57894;BME280;43710;47.460;19.034;2024-01-30T08:45:45;102969.53;;;4.34;100.00
57894;BME280;43710;47.460;19.034;2024-01-30T08:48:48;102972.41;;;4.55;100.00
57894;BME280;43710;47.460;19.034;2024-01-30T08:51:51;102973.66;;;4.67;100.00
57894;BME280;43710;47.460;19.034;2024-01-30T08:54:53;102967.75;;;4.57;100.00
57894;BME280;43710;47.460;19.034;2024-01-30T08:57:56;102967.19;;;4.39;90.19
57894;BME280;43710;47.460;19.034;2024-01-30T09:00:59;102965.16;;;4.72;100.00
57894;BME280;43710;47.460;19.034;2024-01-30T09:04:02;102960.81;;;4.94;100.00
57894;BME280;43710;47.460;19.034;2024-01-30T09:07:05;102951.16;;;4.55;92.23
57894;BME280;43710;47.460;19.034;2024-01-30T09:10:11;102958.94;;;4.80;100.00
57894;BME280;43710;47.460;19.034;2024-01-30T09:13:16;102953.56;;;4.88;100.00
57894;BME280;43710;47.460;19.034;2024-01-30T09:16:18;102948.19;;;4.73;100.00
57894;BME280;43710;47.460;19.034;2024-01-30T09:19:21;102949.03;;;4.51;93.58
57894;BME280;43710;47.460;19.034;2024-01-30T09:22:23;102947.22;;;4.89;100.00
57894;BME280;43710;47.460;19.034;2024-01-30T09:25:26;102954.91;;;5.07;100.00
57894;BME280;43710;47.460;19.034;2024-01-30T09:28:28;102954.41;;;5.03;100.00
57894;BME280;43710;47.460;19.034;2024-01-30T09:31:31;102952.72;;;5.25;100.00
57894;BME280;43710;47.460;19.034;2024-01-30T09:34:33;102948.47;;;5.01;85.14
57894;BME280;43710;47.460;19.034;2024-01-30T09:37:36;102953.38;;;4.89;83.25
57894;BME280;43710;47.460;19.034;2024-01-30T09:40:38;102946.78;;;5.23;100.00
57894;BME280;43710;47.460;19.034;2024-01-30T09:43:42;102943.66;;;5.34;100.00
57894;BME280;43710;47.460;19.034;2024-01-30T09:46:50;102942.47;;;5.67;100.00
57894;BME280;43710;47.460;19.034;2024-01-30T09:49:53;102944.97;;;5.53;94.84
57894;BME280;43710;47.460;19.034;2024-01-30T09:52:56;102935.37;;;5.29;82.72
57894;BME280;43710;47.460;19.034;2024-01-30T09:56:01;102937.97;;;5.37;100.00
57894;BME280;43710;47.460;19.034;2024-01-30T09:59:04;102941.34;;;5.31;97.64
57894;BME280;43710;47.460;19.034;2024-01-30T10:02:07;102946.69;;;5.61;100.00
57894;BME280;43710;47.460;19.034;2024-01-30T10:05:11;102954.09;;;5.65;93.34
57894;BME280;43710;47.460;19.034;2024-01-30T10:08:17;102946.78;;;5.68;95.63
57894;BME280;43710;47.460;19.034;2024-01-30T10:11:21;102945.84;;;6.05;100.00
57894;BME280;43710;47.460;19.034;2024-01-30T10:14:24;102947.31;;;6.29;100.00
57894;BME280;43710;47.460;19.034;2024-01-30T10:17:27;102946.88;;;6.25;94.25
57894;BME280;43710;47.460;19.034;2024-01-30T10:20:35;102936.81;;;6.06;100.00
57894;BME280;43710;47.460;19.034;2024-01-30T10:23:38;102947.72;;;6.26;100.00
57894;BME280;43710;47.460;19.034;2024-01-30T10:26:43;102934.19;;;5.91;86.76
57894;BME280;43710;47.460;19.034;2024-01-30T10:29:48;102930.88;;;6.04;100.00
57894;BME280;43710;47.460;19.034;2024-01-30T10:32:51;102922.63;;;5.84;85.92
57894;BME280;43710;47.460;19.034;2024-01-30T10:36:04;102923.47;;;5.70;84.41
57894;BME280;43710;47.460;19.034;2024-01-30T10:39:06;102925.25;;;6.14;100.00
57894;BME280;43710;47.460;19.034;2024-01-30T10:42:18;102919.28;;;6.11;100.00
57894;BME280;43710;47.460;19.034;2024-01-30T10:45:22;102915.50;;;6.21;91.67
57894;BME280;43710;47.460;19.034;2024-01-30T10:48:29;102911.13;;;6.56;100.00
57894;BME280;43710;47.460;19.034;2024-01-30T10:51:32;102906.25;;;6.88;100.00
57894;BME280;43710;47.460;19.034;2024-01-30T10:54:35;102896.81;;;7.13;100.00
57894;BME280;43710;47.460;19.034;2024-01-30T10:57:38;102895.22;;;7.19;100.00
57894;BME280;43710;47.460;19.034;2024-01-30T11:00:41;102885.22;;;6.71;82.06
57894;BME280;43710;47.460;19.034;2024-01-30T11:03:44;102877.81;;;6.45;81.36
57894;BME280;43710;47.460;19.034;2024-01-30T11:06:49;102876.12;;;6.38;92.11
57894;BME280;43710;47.460;19.034;2024-01-30T11:13:10;102883.09;;;6.60;87.48
57894;BME280;43710;47.460;19.034;2024-01-30T11:16:12;102878.50;;;6.54;78.58
57894;BME280;43710;47.460;19.034;2024-01-30T11:19:15;102875.62;;;6.77;90.24
57894;BME280;43710;47.460;19.034;2024-01-30T11:22:20;102873.87;;;6.63;92.60
57894;BME280;43710;47.460;19.034;2024-01-30T11:25:24;102874.09;;;6.89;93.96
57894;BME280;43710;47.460;19.034;2024-01-30T11:28:32;102861.38;;;6.63;80.98
57894;BME280;43710;47.460;19.034;2024-01-30T11:31:36;102864.09;;;6.70;81.57
57894;BME280;43710;47.460;19.034;2024-01-30T11:34:41;102857.34;;;7.02;100.00
57894;BME280;43710;47.460;19.034;2024-01-30T11:37:45;102856.00;;;7.19;100.00
57894;BME280;43710;47.460;19.034;2024-01-30T11:40:51;102857.06;;;7.25;91.92
57894;BME280;43710;47.460;19.034;2024-01-30T11:43:54;102854.13;;;7.13;86.56
57894;BME280;43710;47.460;19.034;2024-01-30T11:46:56;102849.84;;;6.84;77.11
57894;BME280;43710;47.460;19.034;2024-01-30T11:49:59;102852.47;;;6.77;85.29
57894;BME280;43710;47.460;19.034;2024-01-30T11:53:02;102849.56;;;6.72;78.16
57894;BME280;43710;47.460;19.034;2024-01-30T11:56:06;102838.16;;;7.20;100.00
57894;BME280;43710;47.460;19.034;2024-01-30T11:59:09;102840.34;;;7.51;100.00
57894;BME280;43710;47.460;19.034;2024-01-30T12:02:16;102831.22;;;7.25;82.75
57894;BME280;43710;47.460;19.034;2024-01-30T12:05:23;102827.00;;;7.51;100.00
57894;BME280;43710;47.460;19.034;2024-01-30T12:08:25;102819.22;;;7.49;98.81
57894;BME280;43710;47.460;19.034;2024-01-30T12:11:28;102816.16;;;7.59;100.00
57894;BME280;43710;47.460;19.034;2024-01-30T12:14:32;102807.41;;;7.30;77.79
57894;BME280;43710;47.460;19.034;2024-01-30T12:17:35;102806.47;;;7.51;94.34
57894;BME280;43710;47.460;19.034;2024-01-30T12:20:37;102801.81;;;7.12;76.22
57894;BME280;43710;47.460;19.034;2024-01-30T12:23:40;102794.25;;;7.22;82.21
57894;BME280;43710;47.460;19.034;2024-01-30T12:26:42;102794.94;;;6.96;77.26
57894;BME280;43710;47.460;19.034;2024-01-30T12:29:44;102794.69;;;6.91;74.96
57894;BME280;43710;47.460;19.034;2024-01-30T12:32:49;102790.16;;;6.85;75.47
57894;BME280;43710;47.460;19.034;2024-01-30T12:35:52;102796.41;;;6.99;92.81
57894;BME280;43710;47.460;19.034;2024-01-30T12:39:04;102800.78;;;7.74;100.00
57894;BME280;43710;47.460;19.034;2024-01-30T12:42:07;102797.53;;;7.79;90.23
57894;BME280;43710;47.460;19.034;2024-01-30T12:45:10;102791.41;;;7.92;100.00
57894;BME280;43710;47.460;19.034;2024-01-30T12:48:13;102786.47;;;7.89;75.48
57894;BME280;43710;47.460;19.034;2024-01-30T12:51:16;102787.41;;;7.61;79.35
57894;BME280;43710;47.460;19.034;2024-01-30T12:54:19;102779.31;;;7.35;78.74
57894;BME280;43710;47.460;19.034;2024-01-30T12:57:21;102770.09;;;7.37;71.95
57894;BME280;43710;47.460;19.034;2024-01-30T13:00:24;102772.97;;;7.36;81.28
57894;BME280;43710;47.460;19.034;2024-01-30T13:03:26;102778.69;;;7.26;74.08
57894;BME280;43710;47.460;19.034;2024-01-30T13:06:29;102765.94;;;7.28;75.29
57894;BME280;43710;47.460;19.034;2024-01-30T13:09:31;102765.56;;;7.31;91.74
57894;BME280;43710;47.460;19.034;2024-01-30T13:12:34;102759.84;;;7.47;77.35
57894;BME280;43710;47.460;19.034;2024-01-30T13:15:37;102754.12;;;7.50;94.95
57894;BME280;43710;47.460;19.034;2024-01-30T13:18:39;102752.69;;;7.61;79.72
57894;BME280;43710;47.460;19.034;2024-01-30T13:21:42;102747.34;;;7.48;72.65
57894;BME280;43710;47.460;19.034;2024-01-30T13:24:45;102749.63;;;7.58;83.02
57894;BME280;43710;47.460;19.034;2024-01-30T13:27:47;102743.88;;;7.67;86.04
57894;BME280;43710;47.460;19.034;2024-01-30T13:30:50;102749.44;;;7.59;69.96
57894;BME280;43710;47.460;19.034;2024-01-30T13:33:52;102748.41;;;7.60;72.04
57894;BME280;43710;47.460;19.034;2024-01-30T13:36:55;102749.88;;;7.76;71.68
57894;BME280;43710;47.460;19.034;2024-01-30T13:39:58;102746.94;;;7.58;65.83
57894;BME280;43710;47.460;19.034;2024-01-30T13:43:01;102749.19;;;7.47;67.42
57894;BME280;43710;47.460;19.034;2024-01-30T13:46:03;102747.53;;;7.40;65.76
57894;BME280;43710;47.460;19.034;2024-01-30T13:49:06;102749.38;;;7.39;75.34
57894;BME280;43710;47.460;19.034;2024-01-30T13:52:08;102745.28;;;7.43;71.98
57894;BME280;43710;47.460;19.034;2024-01-30T13:55:11;102743.81;;;7.34;68.02
57894;BME280;43710;47.460;19.034;2024-01-30T13:58:13;102745.13;;;7.78;83.37
57894;BME280;43710;47.460;19.034;2024-01-30T14:01:16;102740.66;;;7.85;94.03
57894;BME280;43710;47.460;19.034;2024-01-30T14:04:20;102740.25;;;8.08;89.81
57894;BME280;43710;47.460;19.034;2024-01-30T14:07:22;102734.03;;;7.74;65.61
57894;BME280;43710;47.460;19.034;2024-01-30T14:10:25;102735.03;;;7.47;62.63
57894;BME280;43710;47.460;19.034;2024-01-30T14:13:27;102730.28;;;7.36;63.67
57894;BME280;43710;47.460;19.034;2024-01-30T14:16:30;102735.44;;;7.50;74.55
57894;BME280;43710;47.460;19.034;2024-01-30T14:19:34;102732.97;;;7.42;77.56
57894;BME280;43710;47.460;19.034;2024-01-30T14:22:37;102725.34;;;7.33;64.89
57894;BME280;43710;47.460;19.034;2024-01-30T14:25:39;102735.22;;;7.39;89.98
57894;BME280;43710;47.460;19.034;2024-01-30T14:28:42;102735.09;;;7.80;93.06
57894;BME280;43710;47.460;19.034;2024-01-30T14:31:46;102730.94;;;7.58;64.84
57894;BME280;43710;47.460;19.034;2024-01-30T14:34:48;102728.63;;;7.41;79.67
57894;BME280;43710;47.460;19.034;2024-01-30T14:37:51;102727.00;;;7.47;73.46
57894;BME280;43710;47.460;19.034;2024-01-30T14:40:53;102734.38;;;7.38;66.48
57894;BME280;43710;47.460;19.034;2024-01-30T14:43:55;102724.69;;;7.24;83.52
57894;BME280;43710;47.460;19.034;2024-01-30T14:46:58;102729.00;;;7.25;70.93
57894;BME280;43710;47.460;19.034;2024-01-30T14:50:00;102729.66;;;7.34;78.74
57894;BME280;43710;47.460;19.034;2024-01-30T14:53:04;102727.41;;;7.37;72.78
57894;BME280;43710;47.460;19.034;2024-01-30T14:56:06;102723.69;;;7.32;63.41
57894;BME280;43710;47.460;19.034;2024-01-30T14:59:09;102726.97;;;7.27;65.42
57894;BME280;43710;47.460;19.034;2024-01-30T15:02:13;102722.44;;;7.27;67.18
57894;BME280;43710;47.460;19.034;2024-01-30T15:05:16;102731.87;;;7.23;69.74
57894;BME280;43710;47.460;19.034;2024-01-30T15:08:18;102733.50;;;7.24;78.89
57894;BME280;43710;47.460;19.034;2024-01-30T15:11:21;102725.47;;;7.18;64.12
57894;BME280;43710;47.460;19.034;2024-01-30T15:14:23;102729.38;;;7.09;71.66
57894;BME280;43710;47.460;19.034;2024-01-30T15:17:26;102727.31;;;7.11;68.41
57894;BME280;43710;47.460;19.034;2024-01-30T15:20:29;102726.47;;;7.03;66.41
57894;BME280;43710;47.460;19.034;2024-01-30T15:23:33;102723.34;;;6.93;67.27
57894;BME280;43710;47.460;19.034;2024-01-30T15:26:35;102724.56;;;6.91;66.15
57894;BME280;43710;47.460;19.034;2024-01-30T15:29:38;102716.31;;;6.79;71.96
57894;BME280;43710;47.460;19.034;2024-01-30T15:32:40;102717.87;;;6.67;68.14
57894;BME280;43710;47.460;19.034;2024-01-30T15:35:43;102717.87;;;6.67;66.28
57894;BME280;43710;47.460;19.034;2024-01-30T15:38:45;102713.97;;;6.63;71.72
57894;BME280;43710;47.460;19.034;2024-01-30T15:41:47;102722.81;;;6.70;84.96
57894;BME280;43710;47.460;19.034;2024-01-30T15:44:50;102727.56;;;6.74;90.62
57894;BME280;43710;47.460;19.034;2024-01-30T15:47:52;102724.25;;;6.66;68.34
57894;BME280;43710;47.460;19.034;2024-01-30T15:50:55;102722.53;;;6.58;71.75
57894;BME280;43710;47.460;19.034;2024-01-30T15:53:57;102720.81;;;6.44;72.97
57894;BME280;43710;47.460;19.034;2024-01-30T15:57:00;102721.78;;;6.36;68.26
57894;BME280;43710;47.460;19.034;2024-01-30T16:00:03;102725.63;;;6.27;73.86
57894;BME280;43710;47.460;19.034;2024-01-30T16:03:12;102723.47;;;6.16;73.74
57894;BME280;43710;47.460;19.034;2024-01-30T16:06:15;102725.09;;;6.10;70.47
57894;BME280;43710;47.460;19.034;2024-01-30T16:09:17;102726.47;;;6.06;69.36
57894;BME280;43710;47.460;19.034;2024-01-30T16:12:20;102728.69;;;6.02;70.36
57894;BME280;43710;47.460;19.034;2024-01-30T16:15:22;102726.25;;;5.86;69.78
57894;BME280;43710;47.460;19.034;2024-01-30T16:18:24;102729.62;;;5.73;72.62
57894;BME280;43710;47.460;19.034;2024-01-30T16:21:28;102727.97;;;5.72;69.83
57894;BME280;43710;47.460;19.034;2024-01-30T16:24:31;102730.78;;;5.64;70.06
57894;BME280;43710;47.460;19.034;2024-01-30T16:27:33;102730.38;;;5.46;82.19
57894;BME280;43710;47.460;19.034;2024-01-30T16:30:35;102737.56;;;5.30;77.51
57894;BME280;43710;47.460;19.034;2024-01-30T16:33:37;102725.09;;;5.31;73.49
57894;BME280;43710;47.460;19.034;2024-01-30T16:36:40;102722.38;;;5.46;72.12
57894;BME280;43710;47.460;19.034;2024-01-30T16:39:45;102724.81;;;5.40;71.99
57894;BME280;43710;47.460;19.034;2024-01-30T16:42:48;102722.06;;;5.34;71.54
57894;BME280;43710;47.460;19.034;2024-01-30T16:45:50;102721.34;;;5.25;98.52
57894;BME280;43710;47.460;19.034;2024-01-30T16:48:53;102723.59;;;5.07;74.88
57894;BME280;43710;47.460;19.034;2024-01-30T16:51:55;102717.72;;;5.11;72.68
